< Typhoon 198701 1987 Season Typhoon 198703 >
Typhoon 198702 (PERCY)
General InformationTrack Information on Google MapsDetailed Wind InformationList of All Images || Disaster Info.ResourceGoogle EarthGE AnimationAtom FeedGeoJSON
Detalied Best Track (Time Zone = UTC)
Year Month Day Hour Lat. Long. Pressure (hPa) Wind (kt) Class Image Chart
1987 4 9 18 7.1 144.9 1006 0 2 Image Chart
1987 4 10 00 7.3 144.7 1006 0 2 Image Chart
1987 4 10 06 7.6 144.3 1004 0 2 Image Chart
1987 4 10 12 8.0 143.9 1004 0 2 Image Chart
1987 4 10 18 8.6 143.4 1004 0 2 Image Chart
1987 4 11 00 9.3 142.9 1002 0 2 Image Chart
1987 4 11 06 10.0 142.4 1000 45 3 Image Chart
1987 4 11 12 10.4 141.8 1000 45 3 Image Chart
1987 4 11 18 10.6 141.1 1002 40 3 Image Chart
1987 4 12 00 10.9 140.3 1006 0 2 Image Chart
1987 4 12 06 11.2 139.3 1006 0 2 Image Chart
1987 4 12 12 11.4 138.4 1006 0 2 Image Chart
1987 4 12 18 11.6 137.8 1006 0 2 Image Chart
1987 4 13 00 11.8 137.1 1006 0 2 Image Chart
1987 4 13 06 12.2 136.3 1006 0 2 Image Chart
1987 4 13 12 12.6 135.3 1006 0 2 Image Chart
1987 4 13 18 13.1 134.1 1008 0 2 Image Chart
1987 4 14 00 13.6 132.8 1008 0 2 Image Chart
1987 4 14 06 13.9 131.8 1008 0 2 Image Chart
1987 4 14 12 14.0 130.8 1008 0 2 Image Chart
1987 4 14 18 14.0 130.2 1008 0 2 Image Chart
1987 4 15 00 14.0 129.5 1008 0 2 Image Chart
1987 4 15 06 14.0 128.9 1008 0 2 Image Chart
1987 4 15 12 14.1 128.5 1010 0 2 Image Chart
1987 4 15 18 14.1 128.2 1010 0 2 Image Chart
1987 4 16 00 14.1 128.0 1010 0 2 Image Chart
1987 4 16 06 14.1 127.8 1010 0 2 Image Chart
1987 4 16 12 14.2 127.4 1010 0 2 Image Chart
Japan Meteorological Agency Best Track Data | Correction Date : 1992-10-21
< Typhoon 198701 1987 Season Typhoon 198703 >

Help